Time,TemperatureF,DewpointF,PressureIn,WindDirection,WindDirectionDegrees,WindSpeedMPH,WindSpeedGustMPH,Humidity,HourlyPrecipIn,Conditions,Clouds,dailyrainin,SoftwareType,DateUTC
2013-01-25 00:00:00,30.0,16.0,-100.00,NNW,334,2.0,6.0,55,-99.99,,,-99.99,,2013-01-25 07:00:00,
2013-01-25 00:52:00,30.0,16.0,-100.00,NNW,334,2.0,6.0,55,-99.99,,,-99.99,,2013-01-25 07:52:00,
2013-01-25 01:00:00,30.0,15.0,-100.00,West,271,2.0,6.0,53,-99.99,,,-99.99,,2013-01-25 08:00:00,
2013-01-25 01:52:00,30.0,15.0,-100.00,West,271,2.0,6.0,53,-99.99,,,-99.99,,2013-01-25 08:52:00,
2013-01-25 02:00:00,30.0,15.0,-100.00,NNW,331,2.0,6.0,54,-99.99,,,-99.99,,2013-01-25 09:00:00,
2013-01-25 02:52:00,30.0,15.0,-100.00,NNW,331,2.0,6.0,54,-99.99,,,-99.99,,2013-01-25 09:52:00,
2013-01-25 03:00:00,30.0,14.0,-100.00,NW,322,2.0,6.0,52,-99.99,,,-99.99,,2013-01-25 10:00:00,
2013-01-25 03:52:00,30.0,14.0,-100.00,NW,322,2.0,6.0,52,-99.99,,,-99.99,,2013-01-25 10:52:00,
2013-01-25 04:00:00,30.0,14.0,-100.00,NNW,332,2.0,5.0,52,-99.99,,,-99.99,,2013-01-25 11:00:00,
2013-01-25 04:52:00,30.0,14.0,-100.00,NNW,332,2.0,5.0,52,-99.99,,,-99.99,,2013-01-25 11:52:00,
2013-01-25 05:00:00,30.0,11.0,-100.00,SW,221,1.0,4.0,45,-99.99,,,-99.99,,2013-01-25 12:00:00,
2013-01-25 05:53:00,30.0,11.0,-100.00,SW,221,1.0,4.0,45,-99.99,,,-99.99,,2013-01-25 12:53:00,
2013-01-25 06:00:00,29.0,12.0,-100.00,SSW,196,1.0,5.0,48,-99.99,,,-99.99,,2013-01-25 13:00:00,
2013-01-25 06:53:00,29.0,12.0,-100.00,SSW,196,1.0,5.0,48,-99.99,,,-99.99,,2013-01-25 13:53:00,
2013-01-25 07:00:00,29.0,13.0,-100.00,WSW,248,2.0,4.0,50,-99.99,,,-99.99,,2013-01-25 14:00:00,
2013-01-25 07:53:00,29.0,13.0,-100.00,WSW,248,2.0,4.0,50,-99.99,,,-99.99,,2013-01-25 14:53:00,
2013-01-25 08:00:00,31.0,13.0,-100.00,WSW,239,2.0,5.0,47,-99.99,,,-99.99,,2013-01-25 15:00:00,
2013-01-25 08:53:00,31.0,13.0,-100.00,WSW,239,2.0,5.0,47,-99.99,,,-99.99,,2013-01-25 15:53:00,
2013-01-25 09:00:00,33.0,13.0,-100.00,SW,230,1.0,3.0,44,-99.99,,,-99.99,,2013-01-25 16:00:00,
2013-01-25 09:53:00,33.0,13.0,-100.00,SW,230,1.0,3.0,44,-99.99,,,-99.99,,2013-01-25 16:53:00,
2013-01-25 10:00:00,36.0,15.0,-100.00,SSE,165,1.0,5.0,42,-99.99,,,-99.99,,2013-01-25 17:00:00,
2013-01-25 10:53:00,36.0,15.0,-100.00,SSE,165,1.0,5.0,42,-99.99,,,-99.99,,2013-01-25 17:53:00,
2013-01-25 11:00:00,36.0,17.0,-100.00,SW,214,1.0,5.0,45,-99.99,,,-99.99,,2013-01-25 18:00:00,
2013-01-25 11:52:00,36.0,17.0,-100.00,SW,214,1.0,5.0,45,-99.99,,,-99.99,,2013-01-25 18:52:00,
2013-01-25 12:00:00,41.0,21.0,-100.00,ENE,58,1.0,5.0,45,-99.99,,,-99.99,,2013-01-25 19:00:00,
2013-01-25 12:53:00,41.0,21.0,-100.00,ENE,58,1.0,5.0,45,-99.99,,,-99.99,,2013-01-25 19:53:00,
2013-01-25 13:00:00,44.0,19.0,-100.00,North,1,1.0,4.0,36,-99.99,,,0.00,,2013-01-25 20:00:00,
2013-01-25 13:52:00,44.0,19.0,-100.00,North,1,1.0,4.0,36,-99.99,,,0.00,,2013-01-25 20:52:00,
2013-01-25 14:00:00,43.0,18.0,-100.00,NNE,22,1.0,4.0,36,-99.99,,,-99.99,,2013-01-25 21:00:00,
2013-01-25 14:52:00,43.0,18.0,-100.00,NNE,22,1.0,4.0,36,-99.99,,,-99.99,,2013-01-25 21:52:00,
2013-01-25 15:00:00,40.0,17.0,-100.00,ENE,76,1.0,3.0,38,-99.99,,,-99.99,,2013-01-25 22:00:00,
2013-01-25 15:52:00,40.0,17.0,-100.00,ENE,76,1.0,3.0,38,-99.99,,,-99.99,,2013-01-25 22:52:00,
2013-01-25 16:00:00,38.0,17.0,-100.00,South,179,0.0,2.0,43,-99.99,,,0.00,,2013-01-25 23:00:00,
2013-01-25 16:52:00,38.0,17.0,-100.00,South,179,0.0,2.0,43,-99.99,,,0.00,,2013-01-25 23:52:00,
2013-01-25 18:00:00,31.0,19.0,-100.00,East,92,0.0,2.0,61,-99.99,,,-99.99,,2013-01-26 01:00:00,
2013-01-25 18:52:00,31.0,19.0,-100.00,East,92,0.0,2.0,61,-99.99,,,-99.99,,2013-01-26 01:52:00,
2013-01-25 19:00:00,30.0,19.0,-100.00,ENE,73,0.0,2.0,64,-99.99,,,0.00,,2013-01-26 02:00:00,
2013-01-25 19:52:00,30.0,19.0,-100.00,ENE,73,0.0,2.0,64,-99.99,,,0.00,,2013-01-26 02:52:00,
2013-01-25 20:00:00,32.0,21.0,-100.00,ESE,103,1.0,2.0,64,-99.99,,,-99.99,,2013-01-26 03:00:00,
2013-01-25 20:52:00,32.0,21.0,-100.00,ESE,103,1.0,2.0,64,-99.99,,,-99.99,,2013-01-26 03:52:00,
2013-01-25 21:00:00,34.0,21.0,-100.00,South,190,1.0,3.0,59,-99.99,,,-99.99,,2013-01-26 04:00:00,
2013-01-25 21:52:00,34.0,21.0,-100.00,South,190,1.0,3.0,59,-99.99,,,-99.99,,2013-01-26 04:52:00,
2013-01-25 22:00:00,33.0,21.0,-100.00,South,176,1.0,4.0,60,-99.99,,,0.00,,2013-01-26 05:00:00,
2013-01-25 22:52:00,33.0,21.0,-100.00,South,176,1.0,4.0,60,-99.99,,,0.00,,2013-01-26 05:52:00,
2013-01-25 23:00:00,33.0,21.0,-100.00,SSW,194,2.0,5.0,61,-99.99,,,-99.99,,2013-01-26 06:00:00,
2013-01-25 23:52:00,33.0,21.0,-100.00,SSW,194,2.0,5.0,61,-99.99,,,-99.99,,2013-01-26 06:52:00,